sensor_id;sensor_type;location;lat;lon;timestamp;P1;durP1;ratioP1;P2;durP2;ratioP2
54575;SDS011;40472;53.486;14.542;2022-10-16T00:01:07;10.90;;;7.10;;
54575;SDS011;40472;53.486;14.542;2022-10-16T00:03:34;6.28;;;4.82;;
54575;SDS011;40472;53.486;14.542;2022-10-16T00:06:00;12.02;;;7.05;;
54575;SDS011;40472;53.486;14.542;2022-10-16T00:08:27;10.68;;;7.00;;
54575;SDS011;40472;53.486;14.542;2022-10-16T00:10:58;12.20;;;6.85;;
54575;SDS011;40472;53.486;14.542;2022-10-16T00:13:25;14.15;;;6.95;;
54575;SDS011;40472;53.486;14.542;2022-10-16T00:15:50;11.73;;;7.07;;
54575;SDS011;40472;53.486;14.542;2022-10-16T00:18:19;10.43;;;7.03;;
54575;SDS011;40472;53.486;14.542;2022-10-16T00:20:45;11.50;;;7.25;;
54575;SDS011;40472;53.486;14.542;2022-10-16T00:23:11;11.18;;;7.65;;
54575;SDS011;40472;53.486;14.542;2022-10-16T00:25:37;11.35;;;6.53;;
54575;SDS011;40472;53.486;14.542;2022-10-16T00:28:02;9.38;;;6.70;;
54575;SDS011;40472;53.486;14.542;2022-10-16T00:30:28;10.75;;;7.13;;
54575;SDS011;40472;53.486;14.542;2022-10-16T00:32:54;11.27;;;6.60;;
54575;SDS011;40472;53.486;14.542;2022-10-16T00:35:20;10.75;;;6.53;;
54575;SDS011;40472;53.486;14.542;2022-10-16T00:37:46;11.15;;;6.43;;
54575;SDS011;40472;53.486;14.542;2022-10-16T00:40:12;10.13;;;6.85;;
54575;SDS011;40472;53.486;14.542;2022-10-16T00:42:38;12.73;;;6.95;;
54575;SDS011;40472;53.486;14.542;2022-10-16T00:45:04;13.48;;;6.97;;
54575;SDS011;40472;53.486;14.542;2022-10-16T00:47:32;10.77;;;7.07;;
54575;SDS011;40472;53.486;14.542;2022-10-16T00:50:13;9.77;;;6.50;;
54575;SDS011;40472;53.486;14.542;2022-10-16T00:52:48;8.60;;;5.65;;
54575;SDS011;40472;53.486;14.542;2022-10-16T00:55:15;10.57;;;6.38;;
54575;SDS011;40472;53.486;14.542;2022-10-16T00:57:41;10.00;;;6.00;;
54575;SDS011;40472;53.486;14.542;2022-10-16T01:00:12;9.38;;;5.80;;
54575;SDS011;40472;53.486;14.542;2022-10-16T01:02:41;9.60;;;6.15;;
54575;SDS011;40472;53.486;14.542;2022-10-16T01:05:07;7.78;;;5.20;;
54575;SDS011;40472;53.486;14.542;2022-10-16T01:12:50;7.75;;;5.90;;
54575;SDS011;40472;53.486;14.542;2022-10-16T01:15:27;8.40;;;6.13;;
54575;SDS011;40472;53.486;14.542;2022-10-16T01:20:53;9.40;;;5.88;;
54575;SDS011;40472;53.486;14.542;2022-10-16T01:29:13;9.82;;;5.40;;
54575;SDS011;40472;53.486;14.542;2022-10-16T01:31:44;7.18;;;5.25;;
54575;SDS011;40472;53.486;14.542;2022-10-16T01:34:16;7.57;;;5.50;;
54575;SDS011;40472;53.486;14.542;2022-10-16T01:36:47;9.95;;;4.80;;
54575;SDS011;40472;53.486;14.542;2022-10-16T01:39:21;9.98;;;5.90;;
54575;SDS011;40472;53.486;14.542;2022-10-16T01:41:55;11.52;;;6.28;;
54575;SDS011;40472;53.486;14.542;2022-10-16T01:44:29;7.53;;;5.40;;
54575;SDS011;40472;53.486;14.542;2022-10-16T01:46:57;7.18;;;5.25;;
54575;SDS011;40472;53.486;14.542;2022-10-16T01:49:25;11.88;;;5.70;;
54575;SDS011;40472;53.486;14.542;2022-10-16T01:51:55;7.70;;;5.00;;
54575;SDS011;40472;53.486;14.542;2022-10-16T01:54:23;7.93;;;5.00;;
54575;SDS011;40472;53.486;14.542;2022-10-16T01:56:52;8.35;;;5.75;;
54575;SDS011;40472;53.486;14.542;2022-10-16T01:59:20;8.95;;;4.90;;
54575;SDS011;40472;53.486;14.542;2022-10-16T02:01:49;7.50;;;5.13;;
54575;SDS011;40472;53.486;14.542;2022-10-16T02:04:23;10.68;;;5.43;;
54575;SDS011;40472;53.486;14.542;2022-10-16T02:06:53;10.52;;;5.85;;
54575;SDS011;40472;53.486;14.542;2022-10-16T02:09:20;9.43;;;5.18;;
54575;SDS011;40472;53.486;14.542;2022-10-16T02:11:46;6.47;;;4.72;;
54575;SDS011;40472;53.486;14.542;2022-10-16T02:14:14;6.78;;;4.95;;
54575;SDS011;40472;53.486;14.542;2022-10-16T02:16:41;6.82;;;4.50;;
54575;SDS011;40472;53.486;14.542;2022-10-16T02:19:09;7.80;;;5.07;;
54575;SDS011;40472;53.486;14.542;2022-10-16T02:29:26;6.95;;;5.15;;
54575;SDS011;40472;53.486;14.542;2022-10-16T02:31:55;9.95;;;5.28;;
54575;SDS011;40472;53.486;14.542;2022-10-16T02:34:24;6.57;;;4.57;;
54575;SDS011;40472;53.486;14.542;2022-10-16T02:36:52;6.32;;;4.20;;
54575;SDS011;40472;53.486;14.542;2022-10-16T02:39:20;7.10;;;4.43;;
54575;SDS011;40472;53.486;14.542;2022-10-16T02:41:46;6.20;;;4.43;;
54575;SDS011;40472;53.486;14.542;2022-10-16T02:44:13;6.53;;;4.03;;
54575;SDS011;40472;53.486;14.542;2022-10-16T02:46:38;9.85;;;4.65;;
54575;SDS011;40472;53.486;14.542;2022-10-16T02:49:04;8.50;;;5.13;;
54575;SDS011;40472;53.486;14.542;2022-10-16T02:51:30;7.22;;;4.68;;
54575;SDS011;40472;53.486;14.542;2022-10-16T02:53:56;6.75;;;4.90;;
54575;SDS011;40472;53.486;14.542;2022-10-16T02:56:21;8.02;;;4.72;;
54575;SDS011;40472;53.486;14.542;2022-10-16T02:58:47;5.13;;;3.67;;
54575;SDS011;40472;53.486;14.542;2022-10-16T03:01:13;6.10;;;4.60;;
54575;SDS011;40472;53.486;14.542;2022-10-16T03:03:41;6.20;;;4.50;;
54575;SDS011;40472;53.486;14.542;2022-10-16T03:06:07;7.80;;;4.22;;
54575;SDS011;40472;53.486;14.542;2022-10-16T03:08:33;6.38;;;4.32;;
54575;SDS011;40472;53.486;14.542;2022-10-16T03:10:59;9.32;;;5.88;;
54575;SDS011;40472;53.486;14.542;2022-10-16T03:13:25;6.68;;;4.13;;
54575;SDS011;40472;53.486;14.542;2022-10-16T03:15:50;6.25;;;4.38;;
54575;SDS011;40472;53.486;14.542;2022-10-16T03:18:16;7.18;;;4.60;;
54575;SDS011;40472;53.486;14.542;2022-10-16T03:20:42;10.23;;;4.30;;
54575;SDS011;40472;53.486;14.542;2022-10-16T03:23:08;6.50;;;4.75;;
54575;SDS011;40472;53.486;14.542;2022-10-16T03:25:34;7.18;;;4.35;;
54575;SDS011;40472;53.486;14.542;2022-10-16T03:28:00;6.30;;;4.28;;
54575;SDS011;40472;53.486;14.542;2022-10-16T03:30:25;7.18;;;5.40;;
54575;SDS011;40472;53.486;14.542;2022-10-16T03:32:51;7.60;;;4.13;;
54575;SDS011;40472;53.486;14.542;2022-10-16T03:35:19;6.95;;;4.25;;
54575;SDS011;40472;53.486;14.542;2022-10-16T03:37:45;7.03;;;3.97;;
54575;SDS011;40472;53.486;14.542;2022-10-16T03:40:11;5.65;;;4.05;;
54575;SDS011;40472;53.486;14.542;2022-10-16T03:42:37;6.65;;;3.85;;
54575;SDS011;40472;53.486;14.542;2022-10-16T03:45:03;5.60;;;3.72;;
54575;SDS011;40472;53.486;14.542;2022-10-16T03:47:29;6.68;;;3.30;;
54575;SDS011;40472;53.486;14.542;2022-10-16T03:49:55;7.43;;;3.67;;
54575;SDS011;40472;53.486;14.542;2022-10-16T03:52:21;5.68;;;4.10;;
54575;SDS011;40472;53.486;14.542;2022-10-16T03:54:47;5.30;;;3.63;;
54575;SDS011;40472;53.486;14.542;2022-10-16T03:57:12;4.22;;;3.15;;
54575;SDS011;40472;53.486;14.542;2022-10-16T03:59:38;7.55;;;4.22;;
54575;SDS011;40472;53.486;14.542;2022-10-16T04:02:04;6.93;;;4.47;;
54575;SDS011;40472;53.486;14.542;2022-10-16T04:04:29;6.65;;;3.88;;
54575;SDS011;40472;53.486;14.542;2022-10-16T04:06:55;4.90;;;3.75;;
54575;SDS011;40472;53.486;14.542;2022-10-16T04:09:21;5.65;;;3.63;;
54575;SDS011;40472;53.486;14.542;2022-10-16T04:11:46;5.35;;;4.10;;
54575;SDS011;40472;53.486;14.542;2022-10-16T04:14:12;4.90;;;3.47;;
54575;SDS011;40472;53.486;14.542;2022-10-16T04:16:38;6.15;;;3.53;;
54575;SDS011;40472;53.486;14.542;2022-10-16T04:19:03;5.30;;;3.75;;
54575;SDS011;40472;53.486;14.542;2022-10-16T04:21:29;5.90;;;4.18;;
54575;SDS011;40472;53.486;14.542;2022-10-16T04:23:55;7.28;;;4.53;;
54575;SDS011;40472;53.486;14.542;2022-10-16T04:26:20;11.60;;;3.72;;
54575;SDS011;40472;53.486;14.542;2022-10-16T04:28:46;8.25;;;4.15;;
54575;SDS011;40472;53.486;14.542;2022-10-16T04:31:12;8.52;;;3.03;;
54575;SDS011;40472;53.486;14.542;2022-10-16T04:33:37;9.23;;;3.70;;
54575;SDS011;40472;53.486;14.542;2022-10-16T04:36:03;5.40;;;3.85;;
54575;SDS011;40472;53.486;14.542;2022-10-16T04:38:29;5.60;;;3.90;;
54575;SDS011;40472;53.486;14.542;2022-10-16T04:40:55;5.75;;;3.65;;
54575;SDS011;40472;53.486;14.542;2022-10-16T04:43:21;10.63;;;3.90;;
54575;SDS011;40472;53.486;14.542;2022-10-16T04:45:47;6.45;;;3.97;;
54575;SDS011;40472;53.486;14.542;2022-10-16T04:48:13;8.70;;;3.85;;
54575;SDS011;40472;53.486;14.542;2022-10-16T04:50:38;7.88;;;4.00;;
54575;SDS011;40472;53.486;14.542;2022-10-16T04:53:05;7.47;;;3.22;;
54575;SDS011;40472;53.486;14.542;2022-10-16T04:55:31;9.15;;;3.92;;
54575;SDS011;40472;53.486;14.542;2022-10-16T04:57:57;6.32;;;3.63;;
54575;SDS011;40472;53.486;14.542;2022-10-16T05:00:23;5.85;;;3.80;;
54575;SDS011;40472;53.486;14.542;2022-10-16T05:02:52;4.60;;;3.63;;
54575;SDS011;40472;53.486;14.542;2022-10-16T05:05:18;6.70;;;4.38;;
54575;SDS011;40472;53.486;14.542;2022-10-16T05:07:45;8.43;;;4.07;;
54575;SDS011;40472;53.486;14.542;2022-10-16T05:10:11;7.20;;;3.72;;
54575;SDS011;40472;53.486;14.542;2022-10-16T05:12:37;6.40;;;4.47;;
54575;SDS011;40472;53.486;14.542;2022-10-16T05:15:03;6.13;;;4.70;;
54575;SDS011;40472;53.486;14.542;2022-10-16T05:17:29;7.05;;;4.70;;
54575;SDS011;40472;53.486;14.542;2022-10-16T05:19:55;6.65;;;4.25;;
54575;SDS011;40472;53.486;14.542;2022-10-16T05:22:21;6.72;;;4.35;;
54575;SDS011;40472;53.486;14.542;2022-10-16T05:24:47;3.90;;;2.83;;
54575;SDS011;40472;53.486;14.542;2022-10-16T05:27:12;6.35;;;3.90;;
54575;SDS011;40472;53.486;14.542;2022-10-16T05:29:44;7.03;;;4.40;;
54575;SDS011;40472;53.486;14.542;2022-10-16T05:32:11;6.05;;;4.50;;
54575;SDS011;40472;53.486;14.542;2022-10-16T05:34:38;5.15;;;3.53;;
54575;SDS011;40472;53.486;14.542;2022-10-16T05:37:04;5.35;;;3.88;;
54575;SDS011;40472;53.486;14.542;2022-10-16T05:39:30;7.03;;;3.88;;
54575;SDS011;40472;53.486;14.542;2022-10-16T05:41:56;6.15;;;3.85;;
54575;SDS011;40472;53.486;14.542;2022-10-16T05:44:22;6.55;;;3.60;;
54575;SDS011;40472;53.486;14.542;2022-10-16T05:46:47;4.90;;;3.25;;
54575;SDS011;40472;53.486;14.542;2022-10-16T05:49:13;9.18;;;3.63;;
54575;SDS011;40472;53.486;14.542;2022-10-16T05:51:39;4.93;;;3.53;;
54575;SDS011;40472;53.486;14.542;2022-10-16T05:54:05;11.68;;;4.55;;
54575;SDS011;40472;53.486;14.542;2022-10-16T05:56:30;6.78;;;3.70;;
54575;SDS011;40472;53.486;14.542;2022-10-16T05:58:56;6.75;;;3.75;;
54575;SDS011;40472;53.486;14.542;2022-10-16T06:01:22;5.00;;;3.53;;
54575;SDS011;40472;53.486;14.542;2022-10-16T06:03:49;4.70;;;3.25;;
54575;SDS011;40472;53.486;14.542;2022-10-16T06:06:17;4.50;;;3.30;;
54575;SDS011;40472;53.486;14.542;2022-10-16T06:08:45;5.00;;;3.40;;
54575;SDS011;40472;53.486;14.542;2022-10-16T06:11:16;6.10;;;3.20;;
54575;SDS011;40472;53.486;14.542;2022-10-16T06:13:52;6.00;;;3.05;;
54575;SDS011;40472;53.486;14.542;2022-10-16T06:16:19;5.60;;;3.38;;
54575;SDS011;40472;53.486;14.542;2022-10-16T06:18:45;6.15;;;3.80;;
54575;SDS011;40472;53.486;14.542;2022-10-16T06:21:13;5.63;;;3.35;;
54575;SDS011;40472;53.486;14.542;2022-10-16T06:23:41;3.95;;;3.13;;
54575;SDS011;40472;53.486;14.542;2022-10-16T06:26:08;4.60;;;3.20;;
54575;SDS011;40472;53.486;14.542;2022-10-16T06:28:36;6.05;;;3.42;;
54575;SDS011;40472;53.486;14.542;2022-10-16T06:31:03;7.63;;;3.67;;
54575;SDS011;40472;53.486;14.542;2022-10-16T06:33:30;4.30;;;2.90;;
54575;SDS011;40472;53.486;14.542;2022-10-16T06:36:03;5.32;;;2.83;;
54575;SDS011;40472;53.486;14.542;2022-10-16T06:38:37;6.93;;;4.07;;
54575;SDS011;40472;53.486;14.542;2022-10-16T06:41:03;7.10;;;4.10;;
54575;SDS011;40472;53.486;14.542;2022-10-16T06:43:31;13.38;;;4.35;;
54575;SDS011;40472;53.486;14.542;2022-10-16T06:45:58;7.85;;;3.92;;
54575;SDS011;40472;53.486;14.542;2022-10-16T06:48:25;5.05;;;3.13;;
54575;SDS011;40472;53.486;14.542;2022-10-16T06:55:54;3.53;;;2.33;;
54575;SDS011;40472;53.486;14.542;2022-10-16T06:58:20;3.50;;;2.30;;
54575;SDS011;40472;53.486;14.542;2022-10-16T07:00:46;5.82;;;3.67;;
54575;SDS011;40472;53.486;14.542;2022-10-16T07:03:12;5.13;;;2.72;;
54575;SDS011;40472;53.486;14.542;2022-10-16T07:05:38;5.72;;;3.03;;
54575;SDS011;40472;53.486;14.542;2022-10-16T07:08:05;7.55;;;3.50;;
54575;SDS011;40472;53.486;14.542;2022-10-16T07:10:31;3.95;;;2.67;;
54575;SDS011;40472;53.486;14.542;2022-10-16T07:12:58;6.60;;;3.28;;
54575;SDS011;40472;53.486;14.542;2022-10-16T07:15:24;8.50;;;2.38;;
54575;SDS011;40472;53.486;14.542;2022-10-16T07:17:51;3.78;;;2.50;;
54575;SDS011;40472;53.486;14.542;2022-10-16T07:20:17;3.92;;;2.30;;
54575;SDS011;40472;53.486;14.542;2022-10-16T07:22:43;4.50;;;2.92;;
54575;SDS011;40472;53.486;14.542;2022-10-16T07:25:09;3.70;;;2.55;;
54575;SDS011;40472;53.486;14.542;2022-10-16T07:27:35;5.18;;;2.80;;
54575;SDS011;40472;53.486;14.542;2022-10-16T07:30:00;4.80;;;3.30;;
54575;SDS011;40472;53.486;14.542;2022-10-16T07:32:26;5.85;;;2.92;;
54575;SDS011;40472;53.486;14.542;2022-10-16T07:34:52;3.70;;;2.38;;
54575;SDS011;40472;53.486;14.542;2022-10-16T07:37:18;4.25;;;2.90;;
54575;SDS011;40472;53.486;14.542;2022-10-16T07:39:45;4.57;;;2.85;;
54575;SDS011;40472;53.486;14.542;2022-10-16T07:42:10;4.72;;;2.25;;
54575;SDS011;40472;53.486;14.542;2022-10-16T07:44:37;5.13;;;3.17;;
54575;SDS011;40472;53.486;14.542;2022-10-16T07:47:03;5.22;;;2.60;;
54575;SDS011;40472;53.486;14.542;2022-10-16T07:49:29;4.35;;;2.80;;
54575;SDS011;40472;53.486;14.542;2022-10-16T07:51:54;6.38;;;2.80;;
54575;SDS011;40472;53.486;14.542;2022-10-16T07:54:20;6.47;;;3.13;;
54575;SDS011;40472;53.486;14.542;2022-10-16T07:56:46;3.28;;;1.88;;
54575;SDS011;40472;53.486;14.542;2022-10-16T07:59:12;5.80;;;2.67;;
54575;SDS011;40472;53.486;14.542;2022-10-16T08:01:37;5.68;;;2.72;;
54575;SDS011;40472;53.486;14.542;2022-10-16T08:04:03;4.00;;;2.30;;
54575;SDS011;40472;53.486;14.542;2022-10-16T08:06:34;3.30;;;2.20;;
54575;SDS011;40472;53.486;14.542;2022-10-16T08:09:01;3.03;;;2.00;;
54575;SDS011;40472;53.486;14.542;2022-10-16T08:11:27;3.30;;;2.03;;
54575;SDS011;40472;53.486;14.542;2022-10-16T08:13:53;2.65;;;1.42;;
54575;SDS011;40472;53.486;14.542;2022-10-16T08:16:19;5.40;;;3.05;;
54575;SDS011;40472;53.486;14.542;2022-10-16T08:18:45;1.38;;;1.02;;
54575;SDS011;40472;53.486;14.542;2022-10-16T08:21:15;2.55;;;1.50;;
54575;SDS011;40472;53.486;14.542;2022-10-16T08:23:43;3.42;;;1.60;;
54575;SDS011;40472;53.486;14.542;2022-10-16T08:26:10;5.22;;;1.88;;
54575;SDS011;40472;53.486;14.542;2022-10-16T08:28:37;4.18;;;2.40;;
54575;SDS011;40472;53.486;14.542;2022-10-16T08:31:04;6.68;;;2.20;;
54575;SDS011;40472;53.486;14.542;2022-10-16T08:33:34;4.50;;;2.20;;
54575;SDS011;40472;53.486;14.542;2022-10-16T08:36:00;4.32;;;1.65;;
54575;SDS011;40472;53.486;14.542;2022-10-16T08:38:27;3.08;;;1.75;;
54575;SDS011;40472;53.486;14.542;2022-10-16T08:40:53;2.72;;;1.70;;
54575;SDS011;40472;53.486;14.542;2022-10-16T08:49:05;3.50;;;1.73;;
54575;SDS011;40472;53.486;14.542;2022-10-16T08:51:37;4.80;;;1.55;;
54575;SDS011;40472;53.486;14.542;2022-10-16T08:54:21;4.03;;;1.83;;
54575;SDS011;40472;53.486;14.542;2022-10-16T08:56:55;3.92;;;2.10;;
54575;SDS011;40472;53.486;14.542;2022-10-16T08:59:26;3.70;;;1.60;;
54575;SDS011;40472;53.486;14.542;2022-10-16T09:01:52;3.83;;;1.85;;
54575;SDS011;40472;53.486;14.542;2022-10-16T09:07:29;2.40;;;1.45;;
54575;SDS011;40472;53.486;14.542;2022-10-16T09:20:26;2.47;;;1.55;;
54575;SDS011;40472;53.486;14.542;2022-10-16T09:25:38;4.75;;;1.33;;
54575;SDS011;40472;53.486;14.542;2022-10-16T09:28:07;7.57;;;1.90;;
54575;SDS011;40472;53.486;14.542;2022-10-16T09:30:35;4.82;;;2.13;;
54575;SDS011;40472;53.486;14.542;2022-10-16T09:33:02;4.22;;;1.60;;
54575;SDS011;40472;53.486;14.542;2022-10-16T09:38:05;3.78;;;2.08;;
54575;SDS011;40472;53.486;14.542;2022-10-16T09:40:33;4.57;;;2.00;;
54575;SDS011;40472;53.486;14.542;2022-10-16T09:48:25;4.22;;;1.92;;
54575;SDS011;40472;53.486;14.542;2022-10-16T09:50:59;2.00;;;1.30;;
54575;SDS011;40472;53.486;14.542;2022-10-16T09:53:42;2.13;;;1.42;;
54575;SDS011;40472;53.486;14.542;2022-10-16T09:56:09;2.92;;;1.23;;
54575;SDS011;40472;53.486;14.542;2022-10-16T09:58:41;0.73;;;0.65;;
54575;SDS011;40472;53.486;14.542;2022-10-16T10:01:11;4.97;;;1.40;;
54575;SDS011;40472;53.486;14.542;2022-10-16T10:03:40;1.92;;;1.00;;
54575;SDS011;40472;53.486;14.542;2022-10-16T10:11:55;4.15;;;1.00;;
54575;SDS011;40472;53.486;14.542;2022-10-16T10:14:35;1.42;;;0.98;;
54575;SDS011;40472;53.486;14.542;2022-10-16T10:22:13;2.58;;;0.85;;
54575;SDS011;40472;53.486;14.542;2022-10-16T10:27:45;1.77;;;0.90;;
54575;SDS011;40472;53.486;14.542;2022-10-16T10:33:11;3.45;;;1.42;;
54575;SDS011;40472;53.486;14.542;2022-10-16T10:43:49;2.22;;;1.20;;
54575;SDS011;40472;53.486;14.542;2022-10-16T10:46:50;1.25;;;0.65;;
54575;SDS011;40472;53.486;14.542;2022-10-16T10:57:38;4.10;;;1.20;;
54575;SDS011;40472;53.486;14.542;2022-10-16T11:00:40;5.15;;;0.90;;
54575;SDS011;40472;53.486;14.542;2022-10-16T11:06:22;1.70;;;0.75;;
54575;SDS011;40472;53.486;14.542;2022-10-16T11:08:53;3.67;;;1.00;;
54575;SDS011;40472;53.486;14.542;2022-10-16T11:16:56;1.38;;;0.82;;
54575;SDS011;40472;53.486;14.542;2022-10-16T11:22:19;1.08;;;0.88;;
54575;SDS011;40472;53.486;14.542;2022-10-16T11:27:54;2.05;;;0.85;;
54575;SDS011;40472;53.486;14.542;2022-10-16T11:30:27;8.25;;;1.60;;
54575;SDS011;40472;53.486;14.542;2022-10-16T11:35:41;4.07;;;1.20;;
54575;SDS011;40472;53.486;14.542;2022-10-16T11:38:19;1.80;;;0.80;;
54575;SDS011;40472;53.486;14.542;2022-10-16T11:50:01;5.28;;;1.10;;
54575;SDS011;40472;53.486;14.542;2022-10-16T11:52:39;2.38;;;0.75;;
54575;SDS011;40472;53.486;14.542;2022-10-16T11:55:20;3.65;;;1.00;;
54575;SDS011;40472;53.486;14.542;2022-10-16T11:57:56;1.73;;;0.80;;
54575;SDS011;40472;53.486;14.542;2022-10-16T12:00:28;3.40;;;0.80;;
54575;SDS011;40472;53.486;14.542;2022-10-16T12:03:12;6.43;;;1.30;;
54575;SDS011;40472;53.486;14.542;2022-10-16T12:05:54;2.75;;;1.15;;
54575;SDS011;40472;53.486;14.542;2022-10-16T12:08:28;3.65;;;1.00;;
54575;SDS011;40472;53.486;14.542;2022-10-16T12:11:05;3.20;;;1.20;;
54575;SDS011;40472;53.486;14.542;2022-10-16T12:13:46;7.15;;;1.40;;
54575;SDS011;40472;53.486;14.542;2022-10-16T12:18:39;1.95;;;1.10;;
54575;SDS011;40472;53.486;14.542;2022-10-16T12:21:06;2.67;;;1.00;;
54575;SDS011;40472;53.486;14.542;2022-10-16T12:23:37;2.42;;;0.98;;
54575;SDS011;40472;53.486;14.542;2022-10-16T12:26:11;3.78;;;1.50;;
54575;SDS011;40472;53.486;14.542;2022-10-16T12:28:37;2.75;;;1.20;;
54575;SDS011;40472;53.486;14.542;2022-10-16T12:31:07;1.90;;;0.85;;
54575;SDS011;40472;53.486;14.542;2022-10-16T12:33:40;2.58;;;1.08;;
54575;SDS011;40472;53.486;14.542;2022-10-16T12:36:34;5.35;;;1.20;;
54575;SDS011;40472;53.486;14.542;2022-10-16T12:39:01;2.20;;;0.90;;
54575;SDS011;40472;53.486;14.542;2022-10-16T12:41:29;2.42;;;1.00;;
54575;SDS011;40472;53.486;14.542;2022-10-16T12:44:01;3.10;;;0.98;;
54575;SDS011;40472;53.486;14.542;2022-10-16T12:49:17;2.17;;;1.00;;
54575;SDS011;40472;53.486;14.542;2022-10-16T12:51:55;4.03;;;1.20;;
54575;SDS011;40472;53.486;14.542;2022-10-16T12:54:55;1.58;;;0.98;;
54575;SDS011;40472;53.486;14.542;2022-10-16T13:03:12;1.45;;;0.90;;
54575;SDS011;40472;53.486;14.542;2022-10-16T13:05:59;1.90;;;0.90;;
54575;SDS011;40472;53.486;14.542;2022-10-16T13:12:20;3.03;;;1.10;;
54575;SDS011;40472;53.486;14.542;2022-10-16T13:24:23;4.43;;;1.30;;
54575;SDS011;40472;53.486;14.542;2022-10-16T13:29:17;3.03;;;1.40;;
54575;SDS011;40472;53.486;14.542;2022-10-16T13:31:44;3.03;;;1.40;;
54575;SDS011;40472;53.486;14.542;2022-10-16T13:34:12;2.05;;;1.52;;
54575;SDS011;40472;53.486;14.542;2022-10-16T13:36:48;7.82;;;1.00;;
54575;SDS011;40472;53.486;14.542;2022-10-16T13:44:44;2.10;;;1.00;;
54575;SDS011;40472;53.486;14.542;2022-10-16T13:49:46;2.13;;;0.82;;
54575;SDS011;40472;53.486;14.542;2022-10-16T13:52:23;2.13;;;0.75;;
54575;SDS011;40472;53.486;14.542;2022-10-16T13:54:49;2.75;;;1.05;;
54575;SDS011;40472;53.486;14.542;2022-10-16T13:57:15;1.30;;;0.80;;
54575;SDS011;40472;53.486;14.542;2022-10-16T13:59:42;2.45;;;1.13;;
54575;SDS011;40472;53.486;14.542;2022-10-16T14:02:14;1.23;;;0.88;;
54575;SDS011;40472;53.486;14.542;2022-10-16T14:05:00;0.57;;;0.57;;
54575;SDS011;40472;53.486;14.542;2022-10-16T14:07:32;2.15;;;1.15;;
54575;SDS011;40472;53.486;14.542;2022-10-16T14:10:00;1.08;;;0.70;;
54575;SDS011;40472;53.486;14.542;2022-10-16T14:12:30;4.80;;;1.00;;
54575;SDS011;40472;53.486;14.542;2022-10-16T14:14:58;2.15;;;0.70;;
54575;SDS011;40472;53.486;14.542;2022-10-16T14:17:29;0.57;;;0.47;;
54575;SDS011;40472;53.486;14.542;2022-10-16T14:19:59;4.40;;;1.00;;
54575;SDS011;40472;53.486;14.542;2022-10-16T14:24:52;0.98;;;0.70;;
54575;SDS011;40472;53.486;14.542;2022-10-16T14:27:29;1.67;;;0.70;;
54575;SDS011;40472;53.486;14.542;2022-10-16T14:30:18;0.80;;;0.80;;
54575;SDS011;40472;53.486;14.542;2022-10-16T14:33:03;1.23;;;0.60;;
54575;SDS011;40472;53.486;14.542;2022-10-16T14:35:34;1.17;;;0.57;;
54575;SDS011;40472;53.486;14.542;2022-10-16T14:38:04;0.50;;;0.50;;
54575;SDS011;40472;53.486;14.542;2022-10-16T14:40:33;1.10;;;0.80;;
54575;SDS011;40472;53.486;14.542;2022-10-16T14:43:01;2.08;;;0.52;;
54575;SDS011;40472;53.486;14.542;2022-10-16T14:45:30;1.15;;;0.70;;
54575;SDS011;40472;53.486;14.542;2022-10-16T14:48:00;1.35;;;0.40;;
54575;SDS011;40472;53.486;14.542;2022-10-16T14:50:28;0.75;;;0.50;;
54575;SDS011;40472;53.486;14.542;2022-10-16T14:52:54;0.70;;;0.40;;
54575;SDS011;40472;53.486;14.542;2022-10-16T14:55:20;0.77;;;0.60;;
54575;SDS011;40472;53.486;14.542;2022-10-16T14:57:46;4.60;;;0.80;;
54575;SDS011;40472;53.486;14.542;2022-10-16T15:00:15;1.15;;;0.80;;
54575;SDS011;40472;53.486;14.542;2022-10-16T15:02:46;3.58;;;0.73;;
54575;SDS011;40472;53.486;14.542;2022-10-16T15:05:21;0.93;;;0.77;;
54575;SDS011;40472;53.486;14.542;2022-10-16T15:10:16;0.82;;;0.60;;
54575;SDS011;40472;53.486;14.542;2022-10-16T15:12:43;0.95;;;0.60;;
54575;SDS011;40472;53.486;14.542;2022-10-16T15:15:32;1.27;;;0.57;;
54575;SDS011;40472;53.486;14.542;2022-10-16T15:18:00;3.08;;;1.95;;
54575;SDS011;40472;53.486;14.542;2022-10-16T15:20:28;1.65;;;0.63;;
54575;SDS011;40472;53.486;14.542;2022-10-16T15:22:58;3.33;;;0.80;;
54575;SDS011;40472;53.486;14.542;2022-10-16T15:25:47;0.52;;;0.52;;
54575;SDS011;40472;53.486;14.542;2022-10-16T15:28:18;2.45;;;0.80;;
54575;SDS011;40472;53.486;14.542;2022-10-16T15:30:45;4.68;;;0.75;;
54575;SDS011;40472;53.486;14.542;2022-10-16T15:33:16;1.60;;;0.70;;
54575;SDS011;40472;53.486;14.542;2022-10-16T15:35:46;2.05;;;0.90;;
54575;SDS011;40472;53.486;14.542;2022-10-16T15:38:13;2.78;;;1.05;;
54575;SDS011;40472;53.486;14.542;2022-10-16T15:40:40;1.98;;;0.77;;
54575;SDS011;40472;53.486;14.542;2022-10-16T15:43:06;2.28;;;0.70;;
54575;SDS011;40472;53.486;14.542;2022-10-16T15:45:32;3.95;;;0.80;;
54575;SDS011;40472;53.486;14.542;2022-10-16T15:47:58;1.30;;;0.70;;
54575;SDS011;40472;53.486;14.542;2022-10-16T15:50:24;2.38;;;1.00;;
54575;SDS011;40472;53.486;14.542;2022-10-16T15:52:51;1.70;;;1.05;;
54575;SDS011;40472;53.486;14.542;2022-10-16T15:55:20;5.88;;;1.17;;
54575;SDS011;40472;53.486;14.542;2022-10-16T15:57:45;1.02;;;0.80;;
54575;SDS011;40472;53.486;14.542;2022-10-16T16:00:12;3.90;;;0.75;;
54575;SDS011;40472;53.486;14.542;2022-10-16T16:02:40;2.42;;;0.90;;
54575;SDS011;40472;53.486;14.542;2022-10-16T16:05:07;5.40;;;1.20;;
54575;SDS011;40472;53.486;14.542;2022-10-16T16:07:34;0.98;;;0.80;;
54575;SDS011;40472;53.486;14.542;2022-10-16T16:10:01;1.63;;;0.90;;
54575;SDS011;40472;53.486;14.542;2022-10-16T16:12:28;4.88;;;1.10;;
54575;SDS011;40472;53.486;14.542;2022-10-16T16:14:54;1.70;;;1.00;;
54575;SDS011;40472;53.486;14.542;2022-10-16T16:17:20;2.03;;;1.17;;
54575;SDS011;40472;53.486;14.542;2022-10-16T16:19:46;2.80;;;1.30;;
54575;SDS011;40472;53.486;14.542;2022-10-16T16:22:12;6.97;;;1.40;;
54575;SDS011;40472;53.486;14.542;2022-10-16T16:24:38;3.13;;;1.27;;
54575;SDS011;40472;53.486;14.542;2022-10-16T16:27:03;2.70;;;1.30;;
54575;SDS011;40472;53.486;14.542;2022-10-16T16:29:29;2.33;;;1.55;;
54575;SDS011;40472;53.486;14.542;2022-10-16T16:31:55;3.17;;;1.60;;
54575;SDS011;40472;53.486;14.542;2022-10-16T16:34:25;4.38;;;1.92;;
54575;SDS011;40472;53.486;14.542;2022-10-16T16:36:52;3.85;;;1.70;;
54575;SDS011;40472;53.486;14.542;2022-10-16T16:39:18;3.58;;;1.65;;
54575;SDS011;40472;53.486;14.542;2022-10-16T16:41:44;5.35;;;1.55;;
54575;SDS011;40472;53.486;14.542;2022-10-16T16:44:10;3.40;;;1.65;;
54575;SDS011;40472;53.486;14.542;2022-10-16T16:46:37;3.58;;;1.90;;
54575;SDS011;40472;53.486;14.542;2022-10-16T16:49:05;4.70;;;2.03;;
54575;SDS011;40472;53.486;14.542;2022-10-16T16:51:32;4.32;;;2.47;;
54575;SDS011;40472;53.486;14.542;2022-10-16T16:53:58;6.55;;;2.65;;
54575;SDS011;40472;53.486;14.542;2022-10-16T16:56:24;5.18;;;2.40;;
54575;SDS011;40472;53.486;14.542;2022-10-16T16:58:51;6.72;;;2.25;;
54575;SDS011;40472;53.486;14.542;2022-10-16T17:01:21;4.13;;;2.05;;
54575;SDS011;40472;53.486;14.542;2022-10-16T17:03:48;6.50;;;2.58;;
54575;SDS011;40472;53.486;14.542;2022-10-16T17:06:19;6.97;;;3.08;;
54575;SDS011;40472;53.486;14.542;2022-10-16T17:08:50;8.73;;;3.05;;
54575;SDS011;40472;53.486;14.542;2022-10-16T17:11:17;5.82;;;2.88;;
54575;SDS011;40472;53.486;14.542;2022-10-16T17:13:45;6.25;;;2.85;;
54575;SDS011;40472;53.486;14.542;2022-10-16T17:16:11;10.60;;;3.75;;
54575;SDS011;40472;53.486;14.542;2022-10-16T17:18:37;10.05;;;3.35;;